createdAt,value
2019-04-04T00:00:00.852Z,0
2019-04-04T00:01:01.059Z,0
2019-04-04T00:02:01.062Z,0
2019-04-04T00:03:00.834Z,0
2019-04-04T00:04:00.805Z,0
2019-04-04T00:05:02.648Z,0
2019-04-04T00:06:03.640Z,0
2019-04-04T00:07:02.796Z,0
2019-04-04T00:08:02.964Z,0
2019-04-04T00:09:04.197Z,0
2019-04-04T00:10:02.055Z,0
2019-04-04T00:11:00.745Z,0
2019-04-04T00:12:00.732Z,0
2019-04-04T00:13:00.978Z,0
2019-04-04T00:14:00.460Z,0
2019-04-04T00:15:00.735Z,0
2019-04-04T00:16:00.718Z,0
2019-04-04T00:17:00.691Z,0
2019-04-04T00:18:01.535Z,0
2019-04-04T00:19:03.484Z,0
2019-04-04T00:20:03.141Z,0
2019-04-04T00:21:02.467Z,0
2019-04-04T00:22:00.884Z,0
2019-04-04T00:23:00.660Z,0
2019-04-04T00:24:00.622Z,0
2019-04-04T00:25:00.886Z,0
2019-04-04T00:26:00.875Z,0
2019-04-04T00:27:00.881Z,0
2019-04-04T00:28:00.871Z,0
2019-04-04T00:29:03.708Z,0
2019-04-04T00:30:00.610Z,0
2019-04-04T00:31:00.846Z,0
2019-04-04T00:32:00.850Z,0
2019-04-04T00:33:00.822Z,0
2019-04-04T00:34:02.532Z,0
2019-04-04T00:35:02.325Z,0
2019-04-04T00:36:00.620Z,0
2019-04-04T00:37:00.790Z,0
2019-04-04T00:38:00.552Z,0
2019-04-04T00:39:00.534Z,0
2019-04-04T00:40:00.791Z,0
2019-04-04T00:41:00.270Z,0
2019-04-04T00:42:00.543Z,0
2019-04-04T00:43:00.490Z,0
2019-04-04T00:44:00.252Z,0
2019-04-04T00:45:02.736Z,0
2019-04-04T00:46:03.112Z,0
2019-04-04T00:47:01.671Z,0
2019-04-04T00:48:01.051Z,0
2019-04-04T00:49:00.717Z,0
2019-04-04T00:50:00.683Z,0
2019-04-04T00:51:00.195Z,0
2019-04-04T00:52:00.692Z,0
2019-04-04T00:53:00.694Z,0
2019-04-04T00:54:00.421Z,0
2019-04-04T00:54:59.932Z,0
2019-04-04T00:56:00.672Z,0
2019-04-04T00:57:00.488Z,0
2019-04-04T00:58:00.469Z,0
2019-04-04T00:59:00.640Z,0
2019-04-04T01:00:01.152Z,0
2019-04-04T01:01:02.108Z,0
2019-04-04T01:02:03.725Z,0
2019-04-04T01:03:02.671Z,0
2019-04-04T01:04:02.970Z,0
2019-04-04T01:05:01.482Z,0
2019-04-04T01:06:02.653Z,0
2019-04-04T01:07:00.060Z,0
2019-04-04T01:08:00.303Z,0
2019-04-04T01:09:00.306Z,0
2019-04-04T01:10:00.043Z,0
2019-04-04T01:11:00.297Z,0
2019-04-04T01:12:00.041Z,0
2019-04-04T01:13:00.545Z,0
2019-04-04T01:14:02.576Z,0
2019-04-04T01:15:03.050Z,0
2019-04-04T01:16:02.441Z,0
2019-04-04T01:17:02.019Z,0
2019-04-04T01:18:00.479Z,0
2019-04-04T01:19:00.476Z,0
2019-04-04T01:20:00.503Z,0
2019-04-04T01:21:00.458Z,0
2019-04-04T01:22:01.097Z,0
2019-04-04T01:23:02.993Z,0
2019-04-04T01:24:02.752Z,0
2019-04-04T01:25:03.162Z,0
2019-04-04T01:26:01.275Z,0
2019-04-04T01:27:00.217Z,0
2019-04-04T01:27:59.960Z,0
2019-04-04T01:29:00.468Z,0
2019-04-04T01:29:59.642Z,0
2019-04-04T01:30:59.907Z,0
2019-04-04T01:32:00.123Z,0
2019-04-04T01:32:59.890Z,0
2019-04-04T01:33:59.860Z,0
2019-04-04T01:35:00.402Z,0
2019-04-04T01:36:01.391Z,0
2019-04-04T01:37:02.873Z,0
2019-04-04T01:38:02.484Z,0
2019-04-04T01:39:02.356Z,0
2019-04-04T01:40:02.089Z,0
2019-04-04T01:41:03.913Z,0
2019-04-04T01:42:00.296Z,0
2019-04-04T01:43:00.057Z,0
2019-04-04T01:44:13.828Z,0
2019-04-04T01:45:00.017Z,0
2019-04-04T01:46:00.284Z,0
2019-04-04T01:47:00.000Z,0
2019-04-04T01:47:59.745Z,0
2019-04-04T01:48:59.748Z,0
2019-04-04T01:49:59.994Z,0
2019-04-04T01:51:01.044Z,0
2019-04-04T01:52:02.592Z,0
2019-04-04T01:53:03.570Z,0
2019-04-04T01:54:02.886Z,0
2019-04-04T01:55:02.943Z,0
2019-04-04T01:55:59.441Z,0
2019-04-04T01:56:59.942Z,0
2019-04-04T01:58:00.174Z,0
2019-04-04T01:58:59.904Z,0
2019-04-04T01:59:59.884Z,0
2019-04-04T02:00:59.390Z,0
2019-04-04T02:01:59.639Z,0
2019-04-04T02:02:59.616Z,0
2019-04-04T02:04:00.362Z,0
2019-04-04T02:05:02.376Z,0
2019-04-04T02:06:02.745Z,0
2019-04-04T02:07:02.028Z,0
2019-04-04T02:08:02.781Z,0
2019-04-04T02:09:02.445Z,0
2019-04-04T02:10:00.076Z,0
2019-04-04T02:11:00.059Z,0
2019-04-04T02:11:59.297Z,0
2019-04-04T02:12:59.781Z,0
2019-04-04T02:13:59.536Z,0
2019-04-04T02:14:59.519Z,0
2019-04-04T02:15:59.507Z,0
2019-04-04T02:16:59.522Z,0
2019-04-04T02:18:00.395Z,0
2019-04-04T02:19:01.199Z,0
2019-04-04T02:20:02.621Z,0
2019-04-04T02:21:02.542Z,0
2019-04-04T02:22:01.954Z,0
2019-04-04T02:23:01.157Z,0
2019-04-04T02:24:01.273Z,0
2019-04-04T02:25:02.675Z,0
2019-04-04T02:25:59.944Z,0
2019-04-04T02:26:59.910Z,0
2019-04-04T02:27:59.417Z,0
2019-04-04T02:28:59.509Z,0
2019-04-04T02:29:59.939Z,0
2019-04-04T02:30:59.663Z,0
2019-04-04T02:32:01.460Z,0
2019-04-04T02:33:04.366Z,0
2019-04-04T02:33:59.876Z,0
2019-04-04T02:34:59.718Z,0
2019-04-04T02:35:59.858Z,0
2019-04-04T02:36:59.346Z,0
2019-04-04T02:38:02.466Z,0
2019-04-04T02:39:02.021Z,0
2019-04-04T02:39:59.821Z,0
2019-04-04T02:40:59.084Z,0
2019-04-04T02:41:59.552Z,0
2019-04-04T02:43:02.464Z,0
2019-04-04T02:44:02.036Z,0
2019-04-04T02:44:59.581Z,0
2019-04-04T02:45:59.524Z,0
2019-04-04T02:46:59.272Z,0
2019-04-04T02:47:59.766Z,0
2019-04-04T02:49:02.880Z,0
2019-04-04T02:50:03.209Z,0
2019-04-04T02:50:59.754Z,0
2019-04-04T02:51:59.476Z,0
2019-04-04T02:52:59.727Z,0
2019-04-04T02:53:59.892Z,0
2019-04-04T02:55:04.427Z,0
2019-04-04T02:56:02.105Z,0
2019-04-04T02:56:59.707Z,0
2019-04-04T02:57:59.192Z,0
2019-04-04T02:58:59.689Z,0
2019-04-04T03:00:01.300Z,0
2019-04-04T03:01:04.245Z,0
2019-04-04T03:01:59.156Z,0
2019-04-04T03:02:59.403Z,0
2019-04-04T03:03:59.421Z,0
2019-04-04T03:04:59.395Z,0
2019-04-04T03:05:59.426Z,0
2019-04-04T03:07:04.626Z,0
2019-04-04T03:08:02.896Z,0
2019-04-04T03:08:59.359Z,0
2019-04-04T03:09:59.105Z,0
2019-04-04T03:10:59.320Z,0
2019-04-04T03:12:01.751Z,0
2019-04-04T03:13:03.035Z,0
2019-04-04T03:14:03.099Z,0
2019-04-04T03:14:59.550Z,0
2019-04-04T03:15:59.324Z,0
2019-04-04T03:17:03.569Z,0
2019-04-04T03:17:59.014Z,0
2019-04-04T03:18:59.002Z,0
2019-04-04T03:19:59.518Z,0
2019-04-04T03:20:59.019Z,0
2019-04-04T03:22:02.293Z,0
2019-04-04T03:23:02.839Z,0
2019-04-04T03:23:59.507Z,0
2019-04-04T03:24:59.478Z,0
2019-04-04T03:25:59.521Z,0
2019-04-04T03:27:00.699Z,0
2019-04-04T03:28:02.519Z,0
2019-04-04T03:28:58.953Z,0
2019-04-04T03:29:59.467Z,0
2019-04-04T03:31:08.529Z,0
2019-04-04T03:31:59.217Z,0
2019-04-04T03:33:02.161Z,0
2019-04-04T03:34:08.208Z,0
2019-04-04T03:34:59.397Z,0
2019-04-04T03:36:02.495Z,0
2019-04-04T03:36:58.873Z,0
2019-04-04T03:37:59.122Z,0
2019-04-04T03:38:59.139Z,0
2019-04-04T03:40:00.618Z,0
2019-04-04T03:41:02.155Z,0
2019-04-04T03:41:59.369Z,0
2019-04-04T03:42:58.832Z,0
2019-04-04T03:43:58.818Z,0
2019-04-04T03:45:01.070Z,0
2019-04-04T03:46:02.845Z,0
2019-04-04T03:46:58.789Z,0
2019-04-04T03:47:59.298Z,0
2019-04-04T03:48:59.318Z,0
2019-04-04T03:50:03.405Z,0
2019-04-04T03:51:06.152Z,0
2019-04-04T03:51:59.273Z,0
2019-04-04T03:52:59.123Z,0
2019-04-04T03:53:59.007Z,0
2019-04-04T03:55:02.539Z,0
2019-04-04T03:56:02.499Z,0
2019-04-04T03:56:58.995Z,0
2019-04-04T03:58:02.386Z,0
2019-04-04T03:59:02.344Z,0
2019-04-04T03:59:58.964Z,0
2019-04-04T04:00:58.937Z,0
2019-04-04T04:01:59.304Z,0
2019-04-04T04:02:58.708Z,0
2019-04-04T04:04:01.782Z,0
2019-04-04T04:05:02.881Z,0
2019-04-04T04:05:58.923Z,0
2019-04-04T04:06:59.185Z,0
2019-04-04T04:07:59.156Z,0
2019-04-04T04:09:01.832Z,0
2019-04-04T04:10:04.296Z,0
2019-04-04T04:10:59.139Z,0
2019-04-04T04:11:59.113Z,0
2019-04-04T04:12:58.857Z,0
2019-04-04T04:13:58.849Z,0
2019-04-04T04:15:02.181Z,0
2019-04-04T04:16:02.396Z,0
2019-04-04T04:16:58.573Z,0
2019-04-04T04:17:59.088Z,0
2019-04-04T04:19:01.886Z,0
2019-04-04T04:20:03.149Z,0
2019-04-04T04:20:59.025Z,0
2019-04-04T04:21:58.795Z,0
2019-04-04T04:22:58.652Z,0
2019-04-04T04:24:03.257Z,0
2019-04-04T04:25:02.018Z,0
2019-04-04T04:25:58.793Z,0
2019-04-04T04:26:58.717Z,0
2019-04-04T04:28:02.606Z,0
2019-04-04T04:29:00.527Z,0
2019-04-04T04:29:59.727Z,0
2019-04-04T04:30:58.938Z,0
2019-04-04T04:31:58.929Z,4
2019-04-04T04:33:02.942Z,4
2019-04-04T04:34:03.441Z,4
2019-04-04T04:34:58.714Z,0
2019-04-04T04:35:58.899Z,0
2019-04-04T04:36:58.903Z,4
2019-04-04T04:38:00.727Z,4
2019-04-04T04:39:03.853Z,4
2019-04-04T04:39:58.911Z,0
2019-04-04T04:40:58.664Z,4
2019-04-04T04:42:01.452Z,4
2019-04-04T04:43:02.459Z,8
2019-04-04T04:43:58.843Z,8
2019-04-04T04:44:58.588Z,12
2019-04-04T04:45:58.599Z,8
2019-04-04T04:46:58.583Z,12
2019-04-04T04:48:02.927Z,12
2019-04-04T04:49:00.554Z,12
2019-04-04T04:50:02.171Z,16
2019-04-04T04:50:58.299Z,16
2019-04-04T04:51:58.541Z,16
2019-04-04T04:52:58.797Z,16
2019-04-04T04:53:58.524Z,24
2019-04-04T04:55:01.348Z,24
2019-04-04T04:56:02.084Z,28
2019-04-04T04:56:58.735Z,28
2019-04-04T04:58:01.127Z,32
2019-04-04T04:58:59.836Z,40
2019-04-04T04:59:58.703Z,44
2019-04-04T05:00:59.602Z,44
2019-04-04T05:01:58.217Z,52
2019-04-04T05:03:00.862Z,60
2019-04-04T05:04:02.495Z,64
2019-04-04T05:05:01.528Z,72
2019-04-04T05:05:58.429Z,76
2019-04-04T05:06:58.400Z,80
2019-04-04T05:07:59.848Z,80
2019-04-04T05:08:58.139Z,80
2019-04-04T05:09:58.360Z,88
2019-04-04T05:10:57.874Z,100
2019-04-04T05:11:58.628Z,104
2019-04-04T05:13:00.521Z,104
2019-04-04T05:14:00.510Z,104
2019-04-04T05:14:59.183Z,104
2019-04-04T05:15:58.319Z,104
2019-04-04T05:16:58.553Z,112
2019-04-04T05:17:58.057Z,120
2019-04-04T05:18:58.544Z,132
2019-04-04T05:19:58.303Z,144
2019-04-04T05:21:01.806Z,156
2019-04-04T05:21:58.274Z,172
2019-04-04T05:22:58.546Z,192
2019-04-04T05:23:58.494Z,204
2019-04-04T05:25:14.181Z,236
2019-04-04T05:26:04.710Z,264
2019-04-04T05:26:58.249Z,288
2019-04-04T05:27:58.479Z,312
2019-04-04T05:29:01.409Z,336
2019-04-04T05:29:57.971Z,348
2019-04-04T05:30:58.527Z,360
2019-04-04T05:31:58.176Z,348
2019-04-04T05:33:01.575Z,332
2019-04-04T05:34:01.298Z,312
2019-04-04T05:35:00.861Z,316
2019-04-04T05:35:58.476Z,332
2019-04-04T05:36:58.168Z,340
2019-04-04T05:37:58.430Z,328
2019-04-04T05:38:58.123Z,324
2019-04-04T05:40:00.228Z,352
2019-04-04T05:41:00.555Z,408
2019-04-04T05:41:58.032Z,468
2019-04-04T05:42:57.845Z,472
2019-04-04T05:43:58.095Z,416
2019-04-04T05:44:58.406Z,412
2019-04-04T05:45:58.077Z,468
2019-04-04T05:46:58.966Z,532
2019-04-04T05:48:02.481Z,552
2019-04-04T05:49:00.008Z,528
2019-04-04T05:49:57.773Z,472
2019-04-04T05:50:58.290Z,420
2019-04-04T05:51:58.267Z,408
2019-04-04T05:52:57.529Z,388
2019-04-04T05:53:58.265Z,356
2019-04-04T05:54:57.997Z,324
2019-04-04T05:55:58.236Z,340
2019-04-04T05:56:57.995Z,312
2019-04-04T05:57:58.602Z,280
2019-04-04T05:59:00.297Z,268
2019-04-04T06:00:00.551Z,272
2019-04-04T06:01:01.851Z,276
2019-04-04T06:01:58.202Z,280
2019-04-04T06:02:58.182Z,284
2019-04-04T06:03:57.973Z,264
2019-04-04T06:05:02.132Z,240
2019-04-04T06:06:00.917Z,232
2019-04-04T06:07:03.867Z,236
2019-04-04T06:07:57.878Z,232
2019-04-04T06:08:57.916Z,224
2019-04-04T06:09:58.125Z,212
2019-04-04T06:10:58.101Z,248
2019-04-04T06:12:00.855Z,288
2019-04-04T06:13:00.827Z,280
2019-04-04T06:14:01.264Z,224
2019-04-04T06:15:00.285Z,172
2019-04-04T06:15:58.060Z,180
2019-04-04T06:16:57.814Z,260
2019-04-04T06:17:58.050Z,352
2019-04-04T06:18:58.028Z,396
2019-04-04T06:19:57.768Z,416
2019-04-04T06:20:58.016Z,432
2019-04-04T06:21:57.758Z,456
2019-04-04T06:22:59.232Z,484
2019-04-04T06:24:00.086Z,492
2019-04-04T06:25:01.636Z,468
2019-04-04T06:25:57.987Z,364
2019-04-04T06:26:57.724Z,296
2019-04-04T06:27:57.705Z,304
2019-04-04T06:28:57.473Z,308
2019-04-04T06:29:57.702Z,336
2019-04-04T06:31:03.221Z,352
2019-04-04T06:31:59.847Z,328
2019-04-04T06:32:57.910Z,312
2019-04-04T06:33:57.892Z,316
2019-04-04T06:34:59.131Z,300
2019-04-04T06:35:57.402Z,304
2019-04-04T06:36:57.897Z,340
2019-04-04T06:37:59.091Z,464
2019-04-04T06:39:00.825Z,556
2019-04-04T06:40:01.775Z,600
2019-04-04T06:40:58.823Z,604
2019-04-04T06:41:57.845Z,564
2019-04-04T06:42:57.355Z,544
2019-04-04T06:43:57.647Z,540
2019-04-04T06:44:59.165Z,576
2019-04-04T06:45:57.573Z,592
2019-04-04T06:47:01.963Z,620
2019-04-04T06:48:00.026Z,684
2019-04-04T06:48:57.781Z,764
2019-04-04T06:49:57.771Z,860
2019-04-04T06:50:57.514Z,916
2019-04-04T06:51:57.757Z,1040
2019-04-04T06:53:00.989Z,1212
2019-04-04T06:54:01.791Z,1384
2019-04-04T06:55:00.343Z,1440
2019-04-04T06:55:58.114Z,1504
2019-04-04T06:56:59.121Z,1380
2019-04-04T06:57:58.085Z,1236
2019-04-04T06:58:57.438Z,1144
2019-04-04T06:59:58.468Z,1116
2019-04-04T07:00:57.671Z,1012
2019-04-04T07:01:59.215Z,952
2019-04-04T07:03:00.045Z,1072
2019-04-04T07:04:01.977Z,1100
2019-04-04T07:04:57.383Z,1140
2019-04-04T07:05:57.407Z,1124
2019-04-04T07:06:59.022Z,1056
2019-04-04T07:07:57.147Z,1128
2019-04-04T07:08:57.610Z,1172
2019-04-04T07:09:58.185Z,1252
2019-04-04T07:11:23.026Z,1256
2019-04-04T07:11:57.362Z,1312
2019-04-04T07:13:27.048Z,1344
2019-04-04T07:13:59.051Z,1352
2019-04-04T07:14:57.564Z,1272
2019-04-04T07:16:13.062Z,1124
2019-04-04T07:16:57.839Z,1028
2019-04-04T07:17:57.082Z,824
2019-04-04T07:18:57.282Z,892
2019-04-04T07:19:57.304Z,1236
2019-04-04T07:20:57.025Z,1388
2019-04-04T07:21:59.031Z,1428
2019-04-04T07:23:00.459Z,1564
2019-04-04T07:24:01.558Z,1640
2019-04-04T07:24:56.998Z,1660
2019-04-04T07:26:00.359Z,1804
2019-04-04T07:26:57.474Z,1948
2019-04-04T07:27:57.217Z,2008
2019-04-04T07:29:00.973Z,1836
2019-04-04T07:29:59.045Z,1504
2019-04-04T07:31:01.578Z,1108
2019-04-04T07:31:57.178Z,852
2019-04-04T07:32:57.175Z,736
2019-04-04T07:33:56.928Z,724
2019-04-04T07:34:57.171Z,792
2019-04-04T07:35:57.169Z,1100
2019-04-04T07:36:58.167Z,1512
2019-04-04T07:38:02.241Z,1928
2019-04-04T07:38:58.155Z,2128
2019-04-04T07:39:57.395Z,2196
2019-04-04T07:40:57.348Z,2072
2019-04-04T07:41:57.108Z,1728
2019-04-04T07:42:57.096Z,1488
2019-04-04T07:44:01.078Z,1416
2019-04-04T07:44:59.259Z,1300
2019-04-04T07:46:15.946Z,1280
2019-04-04T07:46:57.309Z,1412
2019-04-04T07:47:57.050Z,1704
2019-04-04T07:48:59.047Z,2188
2019-04-04T07:49:59.209Z,2372
2019-04-04T07:51:00.850Z,2380
2019-04-04T07:51:57.299Z,2316
2019-04-04T07:52:56.761Z,2416
2019-04-04T07:53:57.014Z,2408
2019-04-04T07:54:56.755Z,2304
2019-04-04T07:55:56.821Z,2260
2019-04-04T07:56:56.731Z,2236
2019-04-04T07:57:58.247Z,2104
2019-04-04T07:58:56.716Z,2028
2019-04-04T07:59:56.708Z,1984
2019-04-04T08:00:56.962Z,1920
2019-04-04T08:01:58.285Z,1976
2019-04-04T08:02:56.930Z,2160
2019-04-04T08:03:57.174Z,2148
2019-04-04T08:04:56.944Z,2200
2019-04-04T08:05:56.946Z,2044
2019-04-04T08:06:56.894Z,1920
2019-04-04T08:07:57.132Z,1928
2019-04-04T08:08:56.646Z,2016
2019-04-04T08:09:57.131Z,2140
2019-04-04T08:10:56.623Z,2204
2019-04-04T08:11:56.368Z,2196
2019-04-04T08:12:56.596Z,2396
2019-04-04T08:13:56.925Z,2260
2019-04-04T08:14:57.078Z,2240
2019-04-04T08:15:57.081Z,2436
2019-04-04T08:16:56.601Z,2648
2019-04-04T08:17:57.078Z,2696
2019-04-04T08:18:56.828Z,2604
2019-04-04T08:20:06.635Z,2544
2019-04-04T08:20:56.568Z,2528
2019-04-04T08:21:56.597Z,2660
2019-04-04T08:22:56.576Z,2744
2019-04-04T08:23:56.545Z,2764
2019-04-04T08:24:56.850Z,2912
2019-04-04T08:25:56.791Z,3120
2019-04-04T08:26:56.751Z,3044
2019-04-04T08:27:57.028Z,3184
2019-04-04T08:28:56.734Z,3256
2019-04-04T08:29:56.971Z,3068
2019-04-04T08:30:56.720Z,2980
2019-04-04T08:31:56.719Z,3160
2019-04-04T08:32:56.710Z,3484
2019-04-04T08:33:56.941Z,3736
2019-04-04T08:34:56.447Z,3924
2019-04-04T08:36:08.168Z,4040
2019-04-04T08:36:56.678Z,4016
2019-04-04T08:37:56.684Z,3916
2019-04-04T08:38:56.909Z,3924
2019-04-04T08:39:56.899Z,3980
2019-04-04T08:40:56.634Z,4268
2019-04-04T08:41:59.267Z,4168
2019-04-04T08:42:56.418Z,4120
2019-04-04T08:43:56.378Z,4128
2019-04-04T08:44:56.624Z,3964
2019-04-04T08:45:56.618Z,3836
2019-04-04T08:46:58.181Z,3956
2019-04-04T08:47:56.973Z,3996
2019-04-04T08:48:56.841Z,4252
2019-04-04T08:49:56.371Z,3928
2019-04-04T08:50:56.592Z,3708
2019-04-04T08:51:56.834Z,3896
2019-04-04T08:52:56.842Z,4064
2019-04-04T08:53:56.806Z,4744
2019-04-04T08:54:56.291Z,5412
2019-04-04T08:55:56.293Z,5560
2019-04-04T08:56:56.795Z,5164
2019-04-04T08:57:56.517Z,5192
2019-04-04T08:58:58.982Z,5816
2019-04-04T08:59:56.280Z,5328
2019-04-04T09:00:56.278Z,4524
2019-04-04T09:01:56.754Z,4576
2019-04-04T09:02:56.229Z,4972
2019-04-04T09:03:56.584Z,5208
2019-04-04T09:04:56.477Z,5300
2019-04-04T09:05:55.954Z,5264
2019-04-04T09:06:56.209Z,5276
2019-04-04T09:07:56.717Z,5264
2019-04-04T09:08:55.957Z,5288
2019-04-04T09:09:57.219Z,5316
2019-04-04T09:10:56.178Z,4868
2019-04-04T09:11:56.422Z,4344
2019-04-04T09:12:56.440Z,4416
2019-04-04T09:13:55.921Z,4292
2019-04-04T09:14:56.672Z,3776
2019-04-04T09:15:56.145Z,3560
2019-04-04T09:16:56.176Z,3136
2019-04-04T09:17:57.209Z,2956
2019-04-04T09:18:55.943Z,2920
2019-04-04T09:19:56.107Z,2668
2019-04-04T09:20:56.363Z,2288
2019-04-04T09:21:56.601Z,2812
2019-04-04T09:22:57.170Z,3100
2019-04-04T09:23:56.588Z,3288
2019-04-04T09:24:56.353Z,3788
2019-04-04T09:26:09.713Z,4516
2019-04-04T09:26:56.551Z,4956
2019-04-04T09:27:56.065Z,5044
2019-04-04T09:28:56.061Z,4668
2019-04-04T09:29:56.535Z,3796
2019-04-04T09:30:56.036Z,3664
2019-04-04T09:31:56.037Z,3804
2019-04-04T09:32:56.515Z,3760
2019-04-04T09:33:56.263Z,3512
2019-04-04T09:34:56.262Z,3472
2019-04-04T09:35:56.013Z,3332
2019-04-04T09:36:56.241Z,3328
2019-04-04T09:37:56.315Z,3336
2019-04-04T09:38:56.238Z,3372
2019-04-04T09:39:56.458Z,3620
2019-04-04T09:40:56.219Z,3920
2019-04-04T09:41:55.968Z,3956
2019-04-04T09:42:55.974Z,3836
2019-04-04T09:43:56.208Z,3820
2019-04-04T09:44:56.039Z,3900
2019-04-04T09:45:56.443Z,3956
2019-04-04T09:47:09.618Z,3972
2019-04-04T09:47:55.666Z,4176
2019-04-04T09:48:56.411Z,4416
2019-04-04T09:49:56.398Z,4004
2019-04-04T09:50:56.319Z,3680
2019-04-04T09:51:55.709Z,3760
2019-04-04T09:52:56.410Z,3756
2019-04-04T09:54:00.411Z,3896
2019-04-04T09:54:55.868Z,3812
2019-04-04T09:55:56.100Z,3616
2019-04-04T09:56:55.869Z,3612
2019-04-04T09:57:55.868Z,3768
2019-04-04T09:58:59.596Z,3988
2019-04-04T09:59:55.573Z,4112
2019-04-04T10:00:56.348Z,3908
2019-04-04T10:01:56.332Z,3368
2019-04-04T10:02:56.057Z,3056
2019-04-04T10:03:56.064Z,2948
2019-04-04T10:04:55.797Z,2992
2019-04-04T10:05:56.048Z,3096
2019-04-04T10:06:56.019Z,3220
2019-04-04T10:07:56.030Z,3252
2019-04-04T10:08:56.010Z,3236
2019-04-04T10:09:56.019Z,3184
2019-04-04T10:10:56.003Z,3172
2019-04-04T10:11:55.774Z,3204
2019-04-04T10:12:56.000Z,3236
2019-04-04T10:13:55.748Z,3264
2019-04-04T10:14:56.224Z,3356
2019-04-04T10:15:55.981Z,3472
2019-04-04T10:16:55.970Z,3580
2019-04-04T10:17:56.472Z,3556
2019-04-04T10:18:55.958Z,3544
2019-04-04T10:19:56.201Z,3492
2019-04-04T10:20:55.955Z,3360
2019-04-04T10:21:55.685Z,3184
2019-04-04T10:22:56.172Z,3060
2019-04-04T10:23:55.670Z,2928
2019-04-04T10:24:56.154Z,2696
2019-04-04T10:25:56.323Z,2552
2019-04-04T10:26:56.132Z,2740
2019-04-04T10:27:56.154Z,3120
2019-04-04T10:28:55.885Z,3276
2019-04-04T10:29:56.119Z,3208
2019-04-04T10:30:55.883Z,3052
2019-04-04T10:31:55.853Z,2992
2019-04-04T10:32:56.090Z,2940
2019-04-04T10:33:55.833Z,3016
2019-04-04T10:34:55.830Z,3096
2019-04-04T10:35:55.827Z,3108
2019-04-04T10:36:55.816Z,2940
2019-04-04T10:37:55.815Z,2876
2019-04-04T10:38:56.059Z,2904
2019-04-04T10:39:55.785Z,3104
2019-04-04T10:40:56.063Z,3428
2019-04-04T10:41:55.783Z,3732
2019-04-04T10:42:56.013Z,3900
2019-04-04T10:43:55.783Z,3844
2019-04-04T10:44:55.761Z,3996
2019-04-04T10:45:56.008Z,3864
2019-04-04T10:46:55.527Z,3524
2019-04-04T10:47:55.993Z,3100
2019-04-04T10:48:55.981Z,3036
2019-04-04T10:49:58.426Z,3384
2019-04-04T10:50:55.720Z,3728
2019-04-04T10:51:55.707Z,3908
2019-04-04T10:52:55.956Z,4180
2019-04-04T10:53:55.722Z,4180
2019-04-04T10:54:55.954Z,3876
2019-04-04T10:55:55.445Z,3356
2019-04-04T10:56:55.426Z,3344
2019-04-04T10:57:55.422Z,3480
2019-04-04T10:58:55.412Z,3048
2019-04-04T10:59:59.039Z,2824
2019-04-04T11:00:55.654Z,3104
2019-04-04T11:01:57.437Z,3544
2019-04-04T11:02:55.639Z,3800
2019-04-04T11:03:55.973Z,4192
2019-04-04T11:04:55.629Z,4672
2019-04-04T11:05:55.647Z,4516
2019-04-04T11:06:55.844Z,4484
2019-04-04T11:07:56.869Z,4576
2019-04-04T11:08:55.843Z,4732
2019-04-04T11:09:55.832Z,4804
2019-04-04T11:10:58.685Z,4792
2019-04-04T11:11:55.820Z,4492
2019-04-04T11:12:55.567Z,4472
2019-04-04T11:13:55.573Z,4652
2019-04-04T11:14:55.304Z,4476
2019-04-04T11:15:55.324Z,3704
2019-04-04T11:16:55.305Z,3904
2019-04-04T11:17:55.546Z,3904
2019-04-04T11:18:55.530Z,4484
2019-04-04T11:19:55.305Z,5144
2019-04-04T11:20:55.514Z,5052
2019-04-04T11:21:55.753Z,5484
2019-04-04T11:22:55.494Z,5964
2019-04-04T11:23:55.524Z,5968
2019-04-04T11:24:55.227Z,6032
2019-04-04T11:25:55.728Z,6676
2019-04-04T11:26:55.727Z,6748
2019-04-04T11:27:55.484Z,6796
2019-04-04T11:28:55.476Z,6868
2019-04-04T11:29:55.466Z,6480
2019-04-04T11:30:55.698Z,5756
2019-04-04T11:31:55.700Z,5348
2019-04-04T11:32:56.215Z,5396
2019-04-04T11:33:55.668Z,5388
2019-04-04T11:35:00.106Z,4948
2019-04-04T11:35:55.671Z,4224
2019-04-04T11:36:55.671Z,3820
2019-04-04T11:37:55.418Z,3912
2019-04-04T11:38:55.406Z,3744
2019-04-04T11:40:01.254Z,3376
2019-04-04T11:40:55.396Z,3120
2019-04-04T11:41:55.121Z,3052
2019-04-04T11:42:55.636Z,3188
2019-04-04T11:43:55.637Z,3476
2019-04-04T11:44:54.876Z,3880
2019-04-04T11:45:55.353Z,3972
2019-04-04T11:46:55.111Z,4284
2019-04-04T11:47:55.586Z,4716
2019-04-04T11:48:55.329Z,4940
2019-04-04T11:49:54.824Z,5320
2019-04-04T11:50:54.830Z,5756
2019-04-04T11:51:55.047Z,5728
2019-04-04T11:52:55.293Z,5488
2019-04-04T11:53:55.552Z,5212
2019-04-04T11:54:55.308Z,5156
2019-04-04T11:55:55.296Z,5352
2019-04-04T11:56:55.271Z,4576
2019-04-04T11:57:55.513Z,4544
2019-04-04T11:58:55.349Z,4148
2019-04-04T11:59:55.816Z,4504
2019-04-04T12:00:55.013Z,5764
2019-04-04T12:01:55.232Z,5984
2019-04-04T12:02:55.535Z,5032
2019-04-04T12:03:55.224Z,4392
2019-04-04T12:04:57.622Z,4216
2019-04-04T12:05:55.489Z,3440
2019-04-04T12:06:55.461Z,3040
2019-04-04T12:07:54.715Z,2876
2019-04-04T12:08:55.461Z,2944
2019-04-04T12:10:06.659Z,2872
2019-04-04T12:10:54.975Z,2680
2019-04-04T12:11:55.198Z,2540
2019-04-04T12:12:58.244Z,2592
2019-04-04T12:13:57.540Z,2844
2019-04-04T12:14:55.419Z,3100
2019-04-04T12:15:55.416Z,3168
2019-04-04T12:16:54.897Z,3280
2019-04-04T12:17:55.145Z,3688
2019-04-04T12:18:55.136Z,3864
2019-04-04T12:19:54.883Z,3596
2019-04-04T12:20:54.862Z,3048
2019-04-04T12:21:55.356Z,2640
2019-04-04T12:22:54.629Z,2496
2019-04-04T12:23:58.558Z,2784
2019-04-04T12:24:55.900Z,3040
2019-04-04T12:25:55.334Z,3240
2019-04-04T12:26:55.327Z,3284
2019-04-04T12:27:55.317Z,3204
2019-04-04T12:28:55.306Z,3084
2019-04-04T12:29:55.387Z,2948
2019-04-04T12:30:55.314Z,2944
2019-04-04T12:31:54.783Z,2732
2019-04-04T12:32:55.030Z,2620
2019-04-04T12:33:55.027Z,2704
2019-04-04T12:34:55.025Z,2876
2019-04-04T12:35:57.244Z,2844
2019-04-04T12:36:55.013Z,2952
2019-04-04T12:37:55.004Z,3236
2019-04-04T12:38:55.003Z,3392
2019-04-04T12:39:55.256Z,3356
2019-04-04T12:40:55.238Z,3264
2019-04-04T12:41:55.225Z,3240
2019-04-04T12:42:54.711Z,3164
2019-04-04T12:43:55.206Z,3116
2019-04-04T12:44:55.224Z,3132
2019-04-04T12:45:55.248Z,3028
2019-04-04T12:46:55.191Z,3112
2019-04-04T12:47:54.951Z,3280
2019-04-04T12:48:55.173Z,3660
2019-04-04T12:49:55.172Z,3940
2019-04-04T12:50:55.773Z,3696
2019-04-04T12:51:54.652Z,3512
2019-04-04T12:52:54.914Z,3340
2019-04-04T12:53:54.890Z,3460
2019-04-04T12:54:55.159Z,3424
2019-04-04T12:55:56.693Z,3444
2019-04-04T12:56:55.117Z,3724
2019-04-04T12:57:54.616Z,4056
2019-04-04T12:58:54.618Z,3896
2019-04-04T12:59:55.107Z,3748
2019-04-04T13:00:54.853Z,3652
2019-04-04T13:01:54.847Z,3828
2019-04-04T13:02:55.094Z,3864
2019-04-04T13:03:55.103Z,3948
2019-04-04T13:05:00.172Z,3924
2019-04-04T13:05:54.809Z,3580
2019-04-04T13:06:54.802Z,3952
2019-04-04T13:07:54.798Z,4068
2019-04-04T13:08:54.531Z,3680
2019-04-04T13:09:54.520Z,3680
2019-04-04T13:10:54.775Z,3752
2019-04-04T13:11:54.762Z,3688
2019-04-04T13:12:54.550Z,3132
2019-04-04T13:13:54.760Z,2712
2019-04-04T13:14:54.983Z,2776
2019-04-04T13:15:54.742Z,2812
2019-04-04T13:16:54.973Z,2824
2019-04-04T13:17:54.723Z,2956
2019-04-04T13:18:54.961Z,3228
2019-04-04T13:19:54.713Z,3340
2019-04-04T13:20:54.948Z,3644
2019-04-04T13:21:54.696Z,4116
2019-04-04T13:22:54.699Z,4020
2019-04-04T13:23:54.465Z,3772
2019-04-04T13:24:54.716Z,3596
2019-04-04T13:25:54.440Z,3768
2019-04-04T13:26:54.918Z,4084
2019-04-04T13:27:54.669Z,4012
2019-04-04T13:28:54.913Z,4336
2019-04-04T13:29:54.641Z,4424
2019-04-04T13:30:54.662Z,3792
2019-04-04T13:31:54.645Z,3072
2019-04-04T13:32:54.403Z,2912
2019-04-04T13:33:54.851Z,2952
2019-04-04T13:35:09.746Z,2868
2019-04-04T13:35:54.381Z,2672
2019-04-04T13:36:54.830Z,2588
2019-04-04T13:37:54.872Z,2720
2019-04-04T13:38:57.459Z,2840
2019-04-04T13:39:54.335Z,2944
2019-04-04T13:40:54.338Z,2844
2019-04-04T13:41:54.563Z,2484
2019-04-04T13:42:57.834Z,2288
2019-04-04T13:43:58.061Z,2052
2019-04-04T13:44:57.063Z,2344
2019-04-04T13:45:54.539Z,2436
2019-04-04T13:46:54.542Z,2532
2019-04-04T13:47:54.285Z,2700
2019-04-04T13:48:54.791Z,2936
2019-04-04T13:49:54.753Z,3332
2019-04-04T13:50:54.246Z,3588
2019-04-04T13:51:57.724Z,3752